createdAt,value
2022-11-25T00:01:21.402Z,3.70
2022-11-25T00:03:50.788Z,2.70
2022-11-25T00:06:20.030Z,2.70
2022-11-25T00:08:51.058Z,2.80
2022-11-25T00:11:19.413Z,4.80
2022-11-25T00:13:48.843Z,3.60
2022-11-25T00:16:18.614Z,5.10
2022-11-25T00:18:47.384Z,4.70
2022-11-25T00:21:18.073Z,2.90
2022-11-25T00:23:46.059Z,3.50
2022-11-25T00:26:17.095Z,2.90
2022-11-25T00:28:46.944Z,3.00
2022-11-25T00:31:16.952Z,5.30
2022-11-25T00:33:45.419Z,3.10
2022-11-25T00:36:18.514Z,3.20
2022-11-25T00:38:46.983Z,4.50
2022-11-25T00:41:33.542Z,3.30
2022-11-25T00:44:19.100Z,3.40
2022-11-25T00:46:47.052Z,5.70
2022-11-25T00:49:14.992Z,5.20
2022-11-25T00:51:42.890Z,4.70
2022-11-25T00:54:10.812Z,3.70
2022-11-25T00:56:41.010Z,3.80
2022-11-25T00:59:09.118Z,3.90
2022-11-25T01:01:37.569Z,5.90
2022-11-25T01:04:06.543Z,4.90
2022-11-25T01:06:34.614Z,4.70
2022-11-25T01:09:02.782Z,3.90
2022-11-25T01:11:31.041Z,5.80
2022-11-25T01:14:01.646Z,5.40
2022-11-25T01:16:30.836Z,5.60
2022-11-25T01:18:59.713Z,6.00
2022-11-25T01:21:29.140Z,4.10
2022-11-25T01:23:57.097Z,4.00
2022-11-25T01:26:26.339Z,5.60
2022-11-25T01:28:56.105Z,6.10
2022-11-25T01:31:27.367Z,4.60
2022-11-25T01:33:57.618Z,3.80
2022-11-25T01:36:25.569Z,3.90
2022-11-25T01:38:56.017Z,3.90
2022-11-25T01:41:25.981Z,5.20
2022-11-25T01:44:12.298Z,5.40
2022-11-25T01:46:54.495Z,3.90
2022-11-25T01:49:28.243Z,3.80
2022-11-25T01:52:01.341Z,4.70
2022-11-25T01:54:34.215Z,5.50
2022-11-25T01:57:05.411Z,5.70
2022-11-25T01:59:39.283Z,4.60
2022-11-25T02:02:09.762Z,5.70
2022-11-25T02:04:40.337Z,3.80
2022-11-25T02:07:12.376Z,3.70
2022-11-25T02:09:43.709Z,5.20
2022-11-25T02:12:12.356Z,5.20
2022-11-25T02:14:41.443Z,5.80
2022-11-25T02:17:10.750Z,5.50
2022-11-25T02:19:53.471Z,3.80
2022-11-25T02:22:28.037Z,5.30
2022-11-25T02:25:03.470Z,5.90
2022-11-25T02:27:32.797Z,5.30
2022-11-25T02:30:00.692Z,5.90
2022-11-25T02:32:28.910Z,4.50
2022-11-25T02:34:56.877Z,3.90
2022-11-25T02:37:25.493Z,3.90
2022-11-25T02:39:54.438Z,3.90
2022-11-25T02:42:23.707Z,3.90
2022-11-25T02:44:53.096Z,3.90
2022-11-25T02:47:21.011Z,3.90
2022-11-25T02:49:48.946Z,5.90
2022-11-25T02:52:16.899Z,3.80
2022-11-25T02:54:45.209Z,3.80
2022-11-25T02:57:13.165Z,5.10
2022-11-25T02:59:41.061Z,4.60
2022-11-25T03:02:10.419Z,3.90
2022-11-25T03:04:38.896Z,3.90
2022-11-25T03:07:06.923Z,4.90
2022-11-25T03:09:34.822Z,4.10
2022-11-25T03:12:21.018Z,5.10
2022-11-25T03:14:49.057Z,5.90
2022-11-25T03:17:18.317Z,4.20
2022-11-25T03:19:46.529Z,4.30
2022-11-25T03:22:14.470Z,4.30
2022-11-25T03:24:42.382Z,4.30
2022-11-25T03:27:10.386Z,4.30
2022-11-25T03:29:38.337Z,5.10
2022-11-25T03:32:09.539Z,4.30
2022-11-25T03:34:39.302Z,4.40
2022-11-25T03:37:07.773Z,5.20
2022-11-25T03:39:35.762Z,6.10
2022-11-25T03:42:03.658Z,5.00
2022-11-25T03:44:31.523Z,4.60
2022-11-25T03:46:59.475Z,5.60
2022-11-25T03:49:27.406Z,4.60
2022-11-25T03:51:56.893Z,5.30
2022-11-25T03:54:25.078Z,6.00
2022-11-25T03:56:53.026Z,5.60
2022-11-25T03:59:20.978Z,4.70
2022-11-25T04:01:49.082Z,5.40
2022-11-25T04:04:17.028Z,4.90
2022-11-25T04:06:45.004Z,4.80
2022-11-25T04:09:14.539Z,4.80
2022-11-25T04:11:59.945Z,4.80
2022-11-25T04:14:28.025Z,4.90
2022-11-25T04:16:55.982Z,4.90
2022-11-25T04:19:23.968Z,6.00
2022-11-25T04:21:52.555Z,5.00
2022-11-25T04:24:22.136Z,5.50
2022-11-25T04:26:50.143Z,4.90
2022-11-25T04:29:18.138Z,6.10
2022-11-25T04:31:46.061Z,6.70
2022-11-25T04:34:14.025Z,5.00
2022-11-25T04:36:41.905Z,6.60
2022-11-25T04:39:09.848Z,5.00
2022-11-25T04:41:39.129Z,5.90
2022-11-25T04:44:07.079Z,5.10
2022-11-25T04:46:38.603Z,5.10
2022-11-25T04:49:06.950Z,6.50
2022-11-25T04:51:34.940Z,5.70
2022-11-25T04:54:02.920Z,5.10
2022-11-25T04:56:30.770Z,5.20
2022-11-25T04:59:17.298Z,5.50
2022-11-25T05:01:45.238Z,5.80
2022-11-25T05:04:13.183Z,6.10
2022-11-25T05:06:41.131Z,5.20
2022-11-25T05:09:10.867Z,6.30
2022-11-25T05:11:38.856Z,7.30
2022-11-25T05:14:08.130Z,6.00
2022-11-25T05:16:36.224Z,5.30
2022-11-25T05:19:04.177Z,5.10
2022-11-25T05:21:33.354Z,5.70
2022-11-25T05:24:01.237Z,5.50
2022-11-25T05:26:29.164Z,6.10
2022-11-25T05:28:57.081Z,6.00
2022-11-25T05:31:26.382Z,6.70
2022-11-25T05:33:54.318Z,7.10
2022-11-25T05:36:22.241Z,6.40
2022-11-25T05:38:50.146Z,5.80
2022-11-25T05:41:18.172Z,5.80
2022-11-25T05:43:47.094Z,6.50
2022-11-25T05:46:15.435Z,5.80
2022-11-25T05:48:44.916Z,5.40
2022-11-25T05:51:13.117Z,6.10
2022-11-25T05:53:41.267Z,5.60
2022-11-25T05:56:11.160Z,7.00
2022-11-25T05:58:39.181Z,5.70
2022-11-25T06:01:11.501Z,7.90
2022-11-25T06:03:42.404Z,5.80
2022-11-25T06:06:12.216Z,5.70
2022-11-25T06:08:41.027Z,5.90
2022-11-25T06:11:10.253Z,6.40
2022-11-25T06:13:38.257Z,6.50
2022-11-25T06:16:10.822Z,5.80
2022-11-25T06:18:39.290Z,5.80
2022-11-25T06:21:08.182Z,6.80
2022-11-25T06:23:37.877Z,5.80
2022-11-25T06:26:08.036Z,6.20
2022-11-25T06:28:37.082Z,5.90
2022-11-25T06:31:09.606Z,5.50
2022-11-25T06:33:37.953Z,5.90
2022-11-25T06:36:07.081Z,5.90
2022-11-25T06:38:35.194Z,5.90
2022-11-25T06:41:06.414Z,6.10
2022-11-25T06:43:34.427Z,5.90
2022-11-25T06:46:06.997Z,6.10
2022-11-25T06:48:35.324Z,5.90
2022-11-25T06:51:05.699Z,6.40
2022-11-25T06:53:34.727Z,6.90
2022-11-25T06:56:09.949Z,7.60
2022-11-25T06:58:38.561Z,6.00
2022-11-25T07:01:08.540Z,6.00
2022-11-25T07:03:36.719Z,6.10
2022-11-25T07:06:05.043Z,6.80
2022-11-25T07:08:34.300Z,6.00
2022-11-25T07:11:08.144Z,6.80
2022-11-25T07:13:36.258Z,6.00
2022-11-25T07:16:05.573Z,6.00
2022-11-25T07:18:35.244Z,6.50
2022-11-25T07:21:05.616Z,6.00
2022-11-25T07:23:33.568Z,5.70
2022-11-25T07:26:07.678Z,7.70
2022-11-25T07:28:36.378Z,6.00
2022-11-25T07:31:23.319Z,6.10
2022-11-25T07:33:52.817Z,6.00
2022-11-25T07:36:20.969Z,6.20
2022-11-25T07:38:49.314Z,6.10
2022-11-25T07:41:20.451Z,6.20
2022-11-25T07:43:50.686Z,6.20
2022-11-25T07:46:26.236Z,6.20
2022-11-25T07:48:55.737Z,7.20
2022-11-25T07:51:26.635Z,6.30
2022-11-25T07:53:55.845Z,6.70
2022-11-25T07:56:25.814Z,6.30
2022-11-25T07:58:53.789Z,6.40
2022-11-25T08:01:22.467Z,6.40
2022-11-25T08:03:52.303Z,6.40
2022-11-25T08:06:21.926Z,6.50
2022-11-25T08:08:50.317Z,7.10
2022-11-25T08:11:21.284Z,6.70
2022-11-25T08:13:51.065Z,6.60
2022-11-25T08:16:21.067Z,6.30
2022-11-25T08:18:49.340Z,6.60
2022-11-25T08:21:18.362Z,6.90
2022-11-25T08:23:48.662Z,6.80
2022-11-25T08:26:19.410Z,8.40
2022-11-25T08:28:48.081Z,6.70
2022-11-25T08:31:19.241Z,6.80
2022-11-25T08:33:47.993Z,6.80
2022-11-25T08:36:16.561Z,6.90
2022-11-25T08:38:45.643Z,6.90
2022-11-25T08:41:15.333Z,6.90
2022-11-25T08:43:43.465Z,6.90
2022-11-25T08:46:13.674Z,6.90
2022-11-25T08:48:44.213Z,6.80
2022-11-25T08:51:14.680Z,6.90
2022-11-25T08:53:43.715Z,7.00
2022-11-25T08:56:12.012Z,7.00
2022-11-25T08:58:40.511Z,7.10
2022-11-25T09:01:08.842Z,7.10
2022-11-25T09:03:39.602Z,7.20
2022-11-25T09:06:09.937Z,7.30
2022-11-25T09:08:39.620Z,7.30
2022-11-25T09:11:08.274Z,7.40
2022-11-25T09:13:36.502Z,7.50
2022-11-25T09:16:05.078Z,7.50
2022-11-25T09:18:33.149Z,7.60
2022-11-25T09:21:01.354Z,7.70
2022-11-25T09:23:30.687Z,7.70
2022-11-25T09:25:59.658Z,9.80
2022-11-25T09:28:27.982Z,7.90
2022-11-25T09:30:55.983Z,8.00
2022-11-25T09:33:24.211Z,8.10
2022-11-25T09:35:52.117Z,10.10
2022-11-25T09:38:20.055Z,8.20
2022-11-25T09:40:55.249Z,8.90
2022-11-25T09:43:54.534Z,8.20
2022-11-25T09:46:42.884Z,8.50
2022-11-25T09:49:25.436Z,8.20
2022-11-25T09:52:01.907Z,8.20
2022-11-25T09:54:35.386Z,8.20
2022-11-25T09:57:22.682Z,8.00
2022-11-25T10:00:01.107Z,8.10
2022-11-25T10:02:36.681Z,8.20
2022-11-25T10:05:09.744Z,8.30
2022-11-25T10:07:41.429Z,8.30
2022-11-25T10:10:19.574Z,9.10
2022-11-25T10:12:51.019Z,9.60
2022-11-25T10:15:24.020Z,9.30
2022-11-25T10:17:54.055Z,8.60
2022-11-25T10:20:25.387Z,8.50
2022-11-25T10:22:57.047Z,10.60
2022-11-25T10:25:28.184Z,9.20
2022-11-25T10:28:00.733Z,9.30
2022-11-25T10:30:35.128Z,8.70
2022-11-25T10:33:13.482Z,8.40
2022-11-25T10:35:46.573Z,8.40
2022-11-25T10:38:20.856Z,9.00
2022-11-25T10:40:51.524Z,10.50
2022-11-25T10:43:20.886Z,8.40
2022-11-25T10:45:59.711Z,10.40
2022-11-25T10:48:45.188Z,8.50
2022-11-25T10:51:26.301Z,8.40
2022-11-25T10:54:22.688Z,9.50
2022-11-25T10:56:57.819Z,8.60
2022-11-25T10:59:30.049Z,8.60
2022-11-25T11:02:17.385Z,8.60
2022-11-25T11:04:57.941Z,8.70
2022-11-25T11:07:27.988Z,9.30
2022-11-25T11:10:13.023Z,8.80
2022-11-25T11:12:55.763Z,8.80
2022-11-25T11:15:26.866Z,9.00
2022-11-25T11:17:55.723Z,9.10
2022-11-25T11:20:25.405Z,9.20
2022-11-25T11:22:58.376Z,9.30
2022-11-25T11:25:30.438Z,9.40
2022-11-25T11:27:58.906Z,9.60
2022-11-25T11:30:30.713Z,9.50
2022-11-25T11:33:05.872Z,10.90
2022-11-25T11:35:46.838Z,9.70
2022-11-25T11:38:30.046Z,10.80
2022-11-25T11:41:09.596Z,9.80
2022-11-25T11:44:01.954Z,10.60
2022-11-25T11:46:58.172Z,9.40
2022-11-25T11:49:46.403Z,9.90
2022-11-25T11:52:25.392Z,10.00
2022-11-25T11:54:59.024Z,10.50
2022-11-25T11:57:36.742Z,12.10
2022-11-25T12:00:09.356Z,9.70
2022-11-25T12:02:50.932Z,10.00
2022-11-25T12:05:22.079Z,11.60
2022-11-25T12:08:02.576Z,9.30
2022-11-25T12:10:34.740Z,11.70
2022-11-25T12:13:09.631Z,11.30
2022-11-25T12:15:42.925Z,10.10
2022-11-25T12:18:21.037Z,10.10
2022-11-25T12:20:55.083Z,10.10
2022-11-25T12:23:29.398Z,10.20
2022-11-25T12:26:03.776Z,10.20
2022-11-25T12:28:36.593Z,12.20
2022-11-25T12:31:12.691Z,9.90
2022-11-25T12:33:58.875Z,10.20
2022-11-25T12:36:35.000Z,10.00
2022-11-25T12:39:06.174Z,10.10
2022-11-25T12:41:42.920Z,11.10
2022-11-25T12:44:17.298Z,11.80
2022-11-25T12:46:47.942Z,10.10
2022-11-25T12:49:21.353Z,10.30
2022-11-25T12:52:23.665Z,11.70
2022-11-25T12:55:09.572Z,10.20
2022-11-25T12:57:56.071Z,10.20
2022-11-25T13:00:41.624Z,10.30
2022-11-25T13:03:41.183Z,10.30
2022-11-25T13:06:38.664Z,10.70
2022-11-25T13:09:18.263Z,10.40
2022-11-25T13:12:12.968Z,11.10
2022-11-25T13:15:03.336Z,10.40
2022-11-25T13:17:34.277Z,10.30
2022-11-25T13:20:33.269Z,10.80
2022-11-25T13:23:10.148Z,10.30
2022-11-25T13:25:41.214Z,10.70
2022-11-25T13:28:30.215Z,10.20
2022-11-25T13:31:20.021Z,10.10
2022-11-25T13:34:03.314Z,9.40
2022-11-25T13:36:47.258Z,9.60
2022-11-25T13:39:18.063Z,10.00
2022-11-25T13:41:51.083Z,10.00
2022-11-25T13:44:28.145Z,9.90
2022-11-25T13:46:58.570Z,11.40
2022-11-25T13:49:33.821Z,9.80
2022-11-25T13:52:04.844Z,9.60
2022-11-25T13:54:41.818Z,10.90
2022-11-25T13:57:27.263Z,9.70
2022-11-25T13:59:58.255Z,9.70
2022-11-25T14:02:41.725Z,10.40
2022-11-25T14:05:36.641Z,10.40
2022-11-25T14:08:14.991Z,9.50
2022-11-25T14:10:50.190Z,9.50
2022-11-25T14:13:34.743Z,9.40
2022-11-25T14:16:14.260Z,8.80
2022-11-25T14:22:07.134Z,9.60
2022-11-25T14:24:41.291Z,9.20
2022-11-25T14:27:16.721Z,8.50
2022-11-25T14:29:49.810Z,9.10
2022-11-25T14:32:22.432Z,9.00
2022-11-25T14:34:55.898Z,8.90
2022-11-25T14:37:29.686Z,8.80
2022-11-25T14:40:00.895Z,8.80
2022-11-25T14:42:36.306Z,8.70
2022-11-25T14:45:04.743Z,8.70
2022-11-25T14:47:37.617Z,8.70
2022-11-25T14:53:07.370Z,9.50
2022-11-25T14:55:36.114Z,8.60
2022-11-25T14:58:05.464Z,8.50
2022-11-25T15:00:33.759Z,8.00
2022-11-25T15:03:03.720Z,9.50
2022-11-25T15:05:33.965Z,9.00
2022-11-25T15:08:04.722Z,8.20
2022-11-25T15:10:40.197Z,8.00
2022-11-25T15:13:21.626Z,8.00
2022-11-25T15:15:52.194Z,8.00
2022-11-25T15:18:22.798Z,7.20
2022-11-25T15:20:54.365Z,7.90
2022-11-25T15:23:27.888Z,8.80
2022-11-25T15:25:57.867Z,7.80
2022-11-25T15:28:27.245Z,7.70
2022-11-25T15:30:59.870Z,7.70
2022-11-25T15:33:29.685Z,7.80
2022-11-25T15:35:57.764Z,7.80
2022-11-25T15:38:38.264Z,7.80
2022-11-25T15:41:08.343Z,7.90
2022-11-25T15:43:42.030Z,7.90
2022-11-25T15:46:10.513Z,7.80
2022-11-25T15:48:41.817Z,9.60
2022-11-25T15:51:22.642Z,7.90
2022-11-25T15:53:55.341Z,7.80
2022-11-25T15:56:36.594Z,7.70
2022-11-25T15:59:05.993Z,7.20
2022-11-25T16:01:34.172Z,7.70
2022-11-25T16:04:18.677Z,7.70
2022-11-25T16:06:57.689Z,8.40
2022-11-25T16:09:28.502Z,7.90
2022-11-25T16:12:06.512Z,7.90
2022-11-25T16:14:38.239Z,7.90
2022-11-25T16:17:11.000Z,7.90
2022-11-25T16:19:43.195Z,8.00
2022-11-25T16:22:16.086Z,8.10
2022-11-25T16:24:50.840Z,8.10
2022-11-25T16:27:22.415Z,8.00
2022-11-25T16:29:54.613Z,8.20
2022-11-25T16:32:24.389Z,8.30
2022-11-25T16:34:52.415Z,9.20
2022-11-25T16:37:20.577Z,7.90
2022-11-25T16:39:48.493Z,8.40
2022-11-25T16:42:21.955Z,7.70
2022-11-25T16:44:53.579Z,8.00
2022-11-25T16:47:23.127Z,8.40
2022-11-25T16:49:51.224Z,8.40
2022-11-25T16:52:19.194Z,8.40
2022-11-25T16:54:47.433Z,8.40
2022-11-25T16:57:19.943Z,8.50
2022-11-25T16:59:54.392Z,8.20
2022-11-25T17:02:26.866Z,9.70
2022-11-25T17:04:55.061Z,10.20
2022-11-25T17:07:38.735Z,8.50
2022-11-25T17:10:10.888Z,8.40
2022-11-25T17:12:41.903Z,8.50
2022-11-25T17:15:16.477Z,8.40
2022-11-25T17:17:47.531Z,7.70
2022-11-25T17:20:16.983Z,8.50
2022-11-25T17:22:44.932Z,8.50
2022-11-25T17:25:13.676Z,9.90
2022-11-25T17:27:42.484Z,9.20
2022-11-25T17:30:19.520Z,8.60
2022-11-25T17:32:50.617Z,8.50
2022-11-25T17:35:20.942Z,8.30
2022-11-25T17:37:49.618Z,8.70
2022-11-25T17:40:18.123Z,8.40
2022-11-25T17:42:48.296Z,8.40
2022-11-25T17:45:18.870Z,8.70
2022-11-25T17:47:49.839Z,8.40
2022-11-25T17:50:20.263Z,8.30
2022-11-25T17:52:48.670Z,8.30
2022-11-25T17:55:19.702Z,8.20
2022-11-25T17:57:48.305Z,8.20
2022-11-25T18:00:19.395Z,9.00
2022-11-25T18:02:47.498Z,8.30
2022-11-25T18:05:18.999Z,8.00
2022-11-25T18:07:47.343Z,8.20
2022-11-25T18:10:17.438Z,8.20
2022-11-25T18:12:47.118Z,8.20
2022-11-25T18:15:17.449Z,7.20
2022-11-25T18:17:45.782Z,8.30
2022-11-25T18:20:21.303Z,7.10
2022-11-25T18:22:49.976Z,8.10
2022-11-25T18:25:20.112Z,8.00
2022-11-25T18:27:49.490Z,7.60
2022-11-25T18:30:20.170Z,9.90
2022-11-25T18:32:48.700Z,8.20
2022-11-25T18:35:20.062Z,8.10
2022-11-25T18:37:48.295Z,8.30
2022-11-25T18:40:16.863Z,7.60
2022-11-25T18:42:50.075Z,8.30
2022-11-25T18:45:20.643Z,11.00
2022-11-25T18:47:48.652Z,8.30
2022-11-25T18:50:20.275Z,9.20
2022-11-25T18:52:48.794Z,8.20
2022-11-25T18:55:41.687Z,8.10
2022-11-25T18:58:15.838Z,8.20
2022-11-25T19:00:44.709Z,9.40
2022-11-25T19:03:19.289Z,6.80
2022-11-25T19:05:49.276Z,8.20
2022-11-25T19:08:18.587Z,9.60
2022-11-25T19:10:54.447Z,8.60
2022-11-25T19:13:27.631Z,8.70
2022-11-25T19:15:57.837Z,8.20
2022-11-25T19:18:28.118Z,10.30
2022-11-25T19:20:58.576Z,10.10
2022-11-25T19:23:28.259Z,7.90
2022-11-25T19:26:02.787Z,6.30
2022-11-25T19:28:34.658Z,7.90
2022-11-25T19:31:12.980Z,7.70
2022-11-25T19:33:43.637Z,7.10
2022-11-25T19:36:20.572Z,9.40
2022-11-25T19:38:48.897Z,7.80
2022-11-25T19:41:17.222Z,10.10
2022-11-25T19:43:48.491Z,7.20
2022-11-25T19:47:06.997Z,9.80
2022-11-25T19:49:28.753Z,7.00
2022-11-25T19:51:58.660Z,8.50
2022-11-25T19:54:29.196Z,9.10
2022-11-25T19:56:57.956Z,9.10
2022-11-25T19:59:26.892Z,5.70
2022-11-25T20:01:55.035Z,8.00
2022-11-25T20:04:25.135Z,9.30
2022-11-25T20:07:06.901Z,6.70
2022-11-25T20:09:42.277Z,8.30
2022-11-25T20:12:22.242Z,7.90
2022-11-25T20:14:51.064Z,8.20
2022-11-25T20:17:26.176Z,7.80
2022-11-25T20:19:57.095Z,8.70
2022-11-25T20:22:30.785Z,9.10
2022-11-25T20:25:01.507Z,9.20
2022-11-25T20:27:29.630Z,7.90
2022-11-25T20:29:57.804Z,6.70
2022-11-25T20:32:29.086Z,7.30
2022-11-25T20:34:57.502Z,7.20
2022-11-25T20:37:28.859Z,8.40
2022-11-25T20:39:59.780Z,8.40
2022-11-25T20:42:28.579Z,9.00
2022-11-25T20:44:57.909Z,9.10
2022-11-25T20:47:27.460Z,7.90
2022-11-25T20:49:55.580Z,6.00
2022-11-25T20:52:31.375Z,7.10
2022-11-25T20:55:00.225Z,9.10
2022-11-25T20:57:28.414Z,7.10
2022-11-25T20:59:56.438Z,8.90
2022-11-25T21:02:24.499Z,7.50
2022-11-25T21:04:52.734Z,7.00
2022-11-25T21:07:21.275Z,7.60
2022-11-25T21:09:50.969Z,7.60
2022-11-25T21:12:19.844Z,8.50
2022-11-25T21:14:48.455Z,8.10
2022-11-25T21:17:16.763Z,8.10
2022-11-25T21:19:45.159Z,9.20
2022-11-25T21:22:15.742Z,8.80
2022-11-25T21:24:45.238Z,5.60
2022-11-25T21:27:16.881Z,6.30
2022-11-25T21:29:46.808Z,8.10
2022-11-25T21:32:30.954Z,6.50
2022-11-25T21:34:59.277Z,8.60
2022-11-25T21:37:31.081Z,7.20
2022-11-25T21:39:59.799Z,8.90
2022-11-25T21:42:31.297Z,8.30
2022-11-25T21:44:59.952Z,5.90
2022-11-25T21:47:31.591Z,7.80
2022-11-25T21:50:00.220Z,8.20
2022-11-25T21:52:29.071Z,5.30
2022-11-25T21:54:57.902Z,6.50
2022-11-25T21:57:43.213Z,7.40
2022-11-25T22:00:22.295Z,6.20
2022-11-25T22:02:50.780Z,8.00
2022-11-25T22:05:26.729Z,7.80
2022-11-25T22:07:56.999Z,5.30
2022-11-25T22:10:25.363Z,8.50
2022-11-25T22:12:55.599Z,9.70
2022-11-25T22:15:25.281Z,8.10
2022-11-25T22:17:57.146Z,6.40
2022-11-25T22:20:30.620Z,7.30
2022-11-25T22:23:00.924Z,6.10
2022-11-25T22:25:32.645Z,7.20
2022-11-25T22:28:02.873Z,6.10
2022-11-25T22:30:31.142Z,5.80
2022-11-25T22:33:02.442Z,5.50
2022-11-25T22:35:31.050Z,6.20
2022-11-25T22:37:59.211Z,8.20
2022-11-25T22:40:27.293Z,8.70
2022-11-25T22:42:57.223Z,8.00
2022-11-25T22:45:32.081Z,6.40
2022-11-25T22:48:01.790Z,8.20
2022-11-25T22:50:32.590Z,6.30
2022-11-25T22:53:14.749Z,7.20
2022-11-25T22:55:43.374Z,5.90
2022-11-25T22:58:12.750Z,8.20
2022-11-25T23:00:45.233Z,5.40
2022-11-25T23:03:19.523Z,7.80
2022-11-25T23:05:48.398Z,6.80
2022-11-25T23:08:18.262Z,5.90
2022-11-25T23:10:47.326Z,5.90
2022-11-25T23:13:17.051Z,5.90
2022-11-25T23:15:49.324Z,6.70
2022-11-25T23:18:25.629Z,5.80
2022-11-25T23:20:53.609Z,6.10
2022-11-25T23:23:23.208Z,8.00
2022-11-25T23:25:51.907Z,6.40
2022-11-25T23:28:20.173Z,6.10
2022-11-25T23:30:52.056Z,5.60
2022-11-25T23:33:24.938Z,5.70
2022-11-25T23:35:52.896Z,6.30
2022-11-25T23:38:25.228Z,5.60
2022-11-25T23:40:53.234Z,6.10
2022-11-25T23:43:21.337Z,6.50
2022-11-25T23:45:52.573Z,5.60
2022-11-25T23:48:22.203Z,5.70
2022-11-25T23:50:50.490Z,5.90
2022-11-25T23:53:23.933Z,6.50
2022-11-25T23:55:52.081Z,5.20
2022-11-25T23:58:22.086Z,6.10
